KCBM/CBM METAR and TAF weather

Enter ICAO airport designator
Station Type Date Time Source
KCBM METAR 2018/01/16 08:56 UTC NOAA

KCBM 160856Z AUTO 34009KT 10SM CLR M A3042 RMK AO2 SLPNO ALSTG ESTMD 51007 TSNO $


Station Type Date Time Source
KCBM Decoded METAR 2018/01/16 08:56 UTC NOAA

Columbus Air Force Base, MS, United States (KCBM) 33-39N 088-27W
Jan 16, 2018 - 03:56 AM EST / 2018.01.16 0856 UTC
Wind: from the NNW (340 degrees) at 10 MPH (9 KT):0
Visibility: 10 mile(s):0
Sky conditions: clear
Pressure (altimeter): 30.42 in. Hg (1030 hPa)
Pressure tendency: 0.02 inches (0.7 hPa) higher than three hours ago
ob: KCBM 160856Z AUTO 34009KT 10SM CLR M A3042 RMK AO2 SLPNO ALSTG ESTMD 51007 TSNO
cycle: 9

Station Type Date Time Source
KCBM TAF 2018/01/16 09:09 UTC NOAA

TAF KCBM 160900Z 1609/1715 34009KT 9999 BKN020 620209 QNH3041INS
BECMG 1611/1612 34009KT 8000 -SN BKN007 620079 QNH3050INS
BECMG 1614/1615 34012G20KT 9999 NSW OVC012 620129 QNH3056INS
BECMG 1617/1618 34010G15KT 9999 OVC020 620209 QNH3058INS
BECMG 1623/1624 33009KT 9999 FEW020 SCT250 QNH3062INS
BECMG 1714/1715 35010G15KT 9999 SKC QNH3069INS TXM01/1609Z TNM06/1708Z LAST NO
AMDS AFT 1609 NEXT 1709


Example: see airport list